createdAt,value
2024-01-18T00:02:19.213Z,97.98
2024-01-18T00:07:23.555Z,98.01
2024-01-18T00:12:26.939Z,98.23
2024-01-18T00:17:31.994Z,98.20
2024-01-18T00:22:35.342Z,97.88
2024-01-18T00:27:38.999Z,98.13
2024-01-18T00:32:43.794Z,98.62
2024-01-18T00:37:47.517Z,98.22
2024-01-18T00:42:51.267Z,98.04
2024-01-18T00:47:59.010Z,97.71
2024-01-18T00:53:02.630Z,97.68
2024-01-18T00:58:06.247Z,97.64
2024-01-18T01:03:11.818Z,97.60
2024-01-18T01:08:15.314Z,97.23
2024-01-18T01:13:18.775Z,97.25
2024-01-18T01:18:23.996Z,97.16
2024-01-18T01:23:27.369Z,97.07
2024-01-18T01:28:30.584Z,96.99
2024-01-18T01:33:35.679Z,97.05
2024-01-18T01:38:39.216Z,96.67
2024-01-18T01:43:57.771Z,96.35
2024-01-18T01:49:04.809Z,96.14
2024-01-18T01:54:08.500Z,95.88
2024-01-18T01:59:12.264Z,95.51
2024-01-18T02:04:17.575Z,95.68
2024-01-18T02:09:21.447Z,95.55
2024-01-18T02:14:25.671Z,95.53
2024-01-18T02:19:30.799Z,95.82
2024-01-18T02:24:35.768Z,95.55
2024-01-18T02:29:40.959Z,95.65
2024-01-18T02:34:45.197Z,95.61
2024-01-18T02:39:49.785Z,95.46
2024-01-18T02:44:55.756Z,95.22
2024-01-18T02:49:59.281Z,95.52
2024-01-18T02:55:02.701Z,95.61
2024-01-18T03:00:09.115Z,95.65
2024-01-18T03:05:13.800Z,95.59
2024-01-18T03:10:17.259Z,95.38
2024-01-18T03:15:22.145Z,95.37
2024-01-18T03:20:25.475Z,95.30
2024-01-18T03:25:28.784Z,95.25
2024-01-18T03:30:33.600Z,95.26
2024-01-18T03:35:37.095Z,95.16
2024-01-18T03:40:40.390Z,95.22
2024-01-18T03:45:45.144Z,95.14
2024-01-18T03:50:48.672Z,95.13
2024-01-18T03:55:52.240Z,95.40
2024-01-18T04:00:57.459Z,95.66
2024-01-18T04:06:01.100Z,95.52
2024-01-18T04:11:04.735Z,95.65
2024-01-18T04:16:10.119Z,95.74
2024-01-18T04:21:15.257Z,95.62
2024-01-18T04:26:18.674Z,95.45
2024-01-18T04:31:23.629Z,95.79
2024-01-18T04:36:27.032Z,95.91
2024-01-18T04:41:30.366Z,96.16
2024-01-18T04:46:35.346Z,96.00
2024-01-18T04:51:40.629Z,96.00
2024-01-18T04:56:44.046Z,96.28
2024-01-18T05:01:48.885Z,96.11
2024-01-18T05:06:52.519Z,96.22
2024-01-18T05:11:55.982Z,96.01
2024-01-18T05:17:05.293Z,96.50
2024-01-18T05:22:09.142Z,96.49
2024-01-18T05:27:12.520Z,96.15
2024-01-18T05:32:18.372Z,96.23
2024-01-18T05:37:23.915Z,96.50
2024-01-18T05:42:28.660Z,96.63
2024-01-18T05:47:33.531Z,96.41
2024-01-18T05:52:36.882Z,96.25
2024-01-18T05:57:40.796Z,96.49
2024-01-18T06:02:45.707Z,96.78
2024-01-18T06:07:51.031Z,96.52
2024-01-18T06:12:54.383Z,96.85
2024-01-18T06:18:04.996Z,96.76
2024-01-18T06:23:08.430Z,97.18
2024-01-18T06:28:12.173Z,97.11
2024-01-18T06:33:17.551Z,97.41
2024-01-18T06:38:21.855Z,97.15
2024-01-18T06:43:25.218Z,97.53
2024-01-18T06:48:30.268Z,97.55
2024-01-18T06:53:33.639Z,97.73
2024-01-18T06:58:37.456Z,97.69
2024-01-18T07:03:43.587Z,97.71
2024-01-18T07:08:47.395Z,97.71
2024-01-18T07:13:50.763Z,97.72
2024-01-18T07:18:55.590Z,97.98
2024-01-18T07:23:58.949Z,98.06
2024-01-18T07:29:03.019Z,98.01
2024-01-18T07:34:08.308Z,98.18
2024-01-18T07:39:11.655Z,97.98
2024-01-18T07:44:15.052Z,98.36
2024-01-18T07:49:19.876Z,97.97
2024-01-18T07:54:23.747Z,98.05
2024-01-18T07:59:27.117Z,98.12
2024-01-18T08:04:32.514Z,98.04
2024-01-18T08:09:36.473Z,97.40
2024-01-18T08:14:42.785Z,97.02
2024-01-18T08:19:47.629Z,96.84
2024-01-18T08:24:50.952Z,96.72
2024-01-18T08:29:54.255Z,96.42
2024-01-18T08:34:59.086Z,95.88
2024-01-18T08:40:02.338Z,95.97
2024-01-18T08:45:06.953Z,95.56
2024-01-18T08:50:12.072Z,95.61
2024-01-18T08:55:16.353Z,95.70
2024-01-18T09:00:20.272Z,95.67
2024-01-18T09:05:25.266Z,95.42
2024-01-18T09:10:28.807Z,95.16
2024-01-18T09:15:32.157Z,95.18
2024-01-18T09:20:37.089Z,94.73
2024-01-18T09:25:41.027Z,94.98
2024-01-18T09:30:44.995Z,94.52
2024-01-18T09:35:50.345Z,94.55
2024-01-18T09:40:54.480Z,94.63
2024-01-18T09:45:58.861Z,94.41
2024-01-18T09:51:04.169Z,94.30
2024-01-18T09:56:14.651Z,93.31
2024-01-18T10:01:22.095Z,93.70
2024-01-18T10:06:27.123Z,93.40
2024-01-18T10:11:31.100Z,93.20
2024-01-18T10:16:37.356Z,93.30
2024-01-18T10:21:45.379Z,92.96
2024-01-18T10:26:48.923Z,92.90
2024-01-18T10:31:52.213Z,92.49
2024-01-18T10:36:57.221Z,92.53
2024-01-18T10:42:01.724Z,92.15
2024-01-18T10:47:09.769Z,92.28
2024-01-18T10:52:14.462Z,92.46
2024-01-18T10:57:17.937Z,92.33
2024-01-18T11:02:22.630Z,92.76
2024-01-18T11:07:27.550Z,92.79
2024-01-18T11:12:31.416Z,92.97
2024-01-18T11:17:36.896Z,92.97
2024-01-18T11:22:42.275Z,93.14
2024-01-18T11:27:45.768Z,92.99
2024-01-18T11:32:49.172Z,93.31
2024-01-18T11:37:54.117Z,93.73
2024-01-18T11:42:58.114Z,93.51
2024-01-18T11:48:01.710Z,93.86
2024-01-18T11:53:06.724Z,93.32
2024-01-18T11:58:10.228Z,93.58
2024-01-18T12:03:14.361Z,93.45
2024-01-18T12:08:19.101Z,93.19
2024-01-18T12:13:22.383Z,93.13
2024-01-18T12:18:25.664Z,93.11
2024-01-18T12:23:31.670Z,92.54
2024-01-18T12:28:34.983Z,92.44
2024-01-18T12:33:40.056Z,92.60
2024-01-18T12:38:45.117Z,92.14
2024-01-18T12:43:48.527Z,92.01
2024-01-18T12:48:52.122Z,92.12
2024-01-18T12:53:57.096Z,91.86
2024-01-18T12:59:00.523Z,91.73
2024-01-18T13:04:17.844Z,91.84
2024-01-18T13:09:27.379Z,91.82
2024-01-18T13:14:31.393Z,91.39
2024-01-18T13:19:34.873Z,91.83
2024-01-18T13:24:39.975Z,91.17
2024-01-18T13:29:43.829Z,91.18
2024-01-18T13:34:47.420Z,91.35
2024-01-18T13:39:52.381Z,91.32
2024-01-18T13:44:56.052Z,91.50
2024-01-18T13:49:59.566Z,91.59
2024-01-18T13:55:04.570Z,91.28
2024-01-18T14:00:09.382Z,91.39
2024-01-18T14:05:12.842Z,91.31
2024-01-18T14:10:17.659Z,91.83
2024-01-18T14:15:21.278Z,91.60
2024-01-18T14:20:24.891Z,91.31
2024-01-18T14:25:29.710Z,91.39
2024-01-18T14:30:33.135Z,91.04
2024-01-18T14:35:37.505Z,90.78
2024-01-18T14:40:44.071Z,90.43
2024-01-18T14:45:48.201Z,89.95
2024-01-18T14:50:51.779Z,89.88
2024-01-18T14:55:56.650Z,89.64
2024-01-18T15:01:00.482Z,89.43
2024-01-18T15:06:04.285Z,88.67
2024-01-18T15:11:09.396Z,88.25
2024-01-18T15:16:15.830Z,87.88
2024-01-18T15:21:20.451Z,87.39
2024-01-18T15:26:25.356Z,86.16
2024-01-18T15:31:29.905Z,85.08
2024-01-18T15:36:35.013Z,84.21
2024-01-18T15:41:46.082Z,82.87
2024-01-18T15:46:55.770Z,79.18
2024-01-18T15:51:59.200Z,77.26
2024-01-18T15:57:04.060Z,75.65
2024-01-18T16:02:07.408Z,75.66
2024-01-18T16:07:12.332Z,75.17
2024-01-18T16:12:17.338Z,76.05
2024-01-18T16:17:20.734Z,76.20
2024-01-18T16:22:24.110Z,76.52
2024-01-18T16:27:28.850Z,77.02
2024-01-18T16:32:32.372Z,77.10
2024-01-18T16:37:36.677Z,77.91
2024-01-18T16:42:43.049Z,78.35
2024-01-18T16:47:46.493Z,79.10
2024-01-18T16:52:49.860Z,79.39
2024-01-18T16:57:54.664Z,79.64
2024-01-18T17:02:57.957Z,80.21
2024-01-18T17:08:01.836Z,80.40
2024-01-18T17:13:06.650Z,81.66
2024-01-18T17:18:10.264Z,82.14
2024-01-18T17:23:13.638Z,82.47
2024-01-18T17:28:18.351Z,82.42
2024-01-18T17:33:21.660Z,82.40
2024-01-18T17:38:25.203Z,82.87
2024-01-18T17:43:29.905Z,82.58
2024-01-18T17:48:36.713Z,82.19
2024-01-18T17:53:40.538Z,82.06
2024-01-18T17:58:45.681Z,82.55
2024-01-18T18:03:49.139Z,82.51
2024-01-18T18:08:52.635Z,82.15
2024-01-18T18:13:57.286Z,81.57
2024-01-18T18:19:00.586Z,81.80
2024-01-18T18:24:04.055Z,81.65
2024-01-18T18:29:10.976Z,81.33
2024-01-18T18:34:20.644Z,81.49
2024-01-18T18:39:30.163Z,82.03
2024-01-18T18:44:34.874Z,82.53
2024-01-18T18:49:38.141Z,82.40
2024-01-18T18:54:41.493Z,82.51
2024-01-18T18:59:49.698Z,82.39
2024-01-18T19:04:56.082Z,82.65
2024-01-18T19:10:00.567Z,82.58
2024-01-18T22:58:45.998Z,90.27
2024-01-18T23:03:50.217Z,94.40
2024-01-18T23:08:53.931Z,95.84
2024-01-18T23:14:00.238Z,97.01
2024-01-18T23:19:03.642Z,98.16
2024-01-18T23:24:07.351Z,97.16
2024-01-18T23:29:12.074Z,99.33
2024-01-18T23:34:15.571Z,99.62
2024-01-18T23:39:19.693Z,100.00
2024-01-18T23:44:24.342Z,100.00
2024-01-18T23:49:27.879Z,100.00
2024-01-18T23:54:31.247Z,99.21
2024-01-18T23:59:36.005Z,100.00
